sensor_id;sensor_type;location;lat;lon;timestamp;pressure;altitude;pressure_sealevel;temperature;humidity
22389;BME280;11362;48.102;11.620;2023-09-07T00:01:11;95608.22;;;26.68;40.90
22389;BME280;11362;48.102;11.620;2023-09-07T00:03:37;95609.38;;;26.71;40.51
22389;BME280;11362;48.102;11.620;2023-09-07T00:06:02;95603.41;;;26.69;40.56
22389;BME280;11362;48.102;11.620;2023-09-07T00:08:27;95613.78;;;26.68;40.46
22389;BME280;11362;48.102;11.620;2023-09-07T00:10:52;95606.28;;;26.65;40.60
22389;BME280;11362;48.102;11.620;2023-09-07T00:13:18;95617.00;;;26.67;40.72
22389;BME280;11362;48.102;11.620;2023-09-07T00:15:43;95607.50;;;26.64;40.89
22389;BME280;11362;48.102;11.620;2023-09-07T00:20:40;95602.22;;;26.70;40.50
22389;BME280;11362;48.102;11.620;2023-09-07T00:23:06;95601.84;;;26.68;40.79
22389;BME280;11362;48.102;11.620;2023-09-07T00:25:31;95586.00;;;26.65;40.61
22389;BME280;11362;48.102;11.620;2023-09-07T00:27:56;95587.63;;;26.62;40.41
22389;BME280;11362;48.102;11.620;2023-09-07T00:30:21;95589.19;;;26.63;40.79
22389;BME280;11362;48.102;11.620;2023-09-07T00:32:47;95590.78;;;26.64;40.48
22389;BME280;11362;48.102;11.620;2023-09-07T00:35:12;95590.78;;;26.64;40.56
22389;BME280;11362;48.102;11.620;2023-09-07T00:37:37;95586.41;;;26.63;40.83
22389;BME280;11362;48.102;11.620;2023-09-07T00:40:03;95586.94;;;26.58;40.78
22389;BME280;11362;48.102;11.620;2023-09-07T00:42:28;95589.63;;;26.62;40.73
22389;BME280;11362;48.102;11.620;2023-09-07T00:47:37;95591.56;;;26.65;40.55
22389;BME280;11362;48.102;11.620;2023-09-07T00:50:04;95592.34;;;26.65;40.91
22389;BME280;11362;48.102;11.620;2023-09-07T00:52:31;95589.56;;;26.65;40.47
22389;BME280;11362;48.102;11.620;2023-09-07T00:54:56;95592.28;;;26.69;40.46
22389;BME280;11362;48.102;11.620;2023-09-07T00:57:22;95595.56;;;26.64;40.56
22389;BME280;11362;48.102;11.620;2023-09-07T00:59:47;95582.78;;;26.66;40.72
22389;BME280;11362;48.102;11.620;2023-09-07T01:02:12;95589.94;;;26.67;40.63
22389;BME280;11362;48.102;11.620;2023-09-07T01:04:38;95586.34;;;26.67;40.34
22389;BME280;11362;48.102;11.620;2023-09-07T01:07:11;95588.72;;;26.68;40.38
22389;BME280;11362;48.102;11.620;2023-09-07T01:09:40;95593.06;;;26.69;40.27
22389;BME280;11362;48.102;11.620;2023-09-07T01:14:03;95590.69;;;26.68;40.47
22389;BME280;11362;48.102;11.620;2023-09-07T01:16:29;95592.28;;;26.69;40.60
22389;BME280;11362;48.102;11.620;2023-09-07T01:18:55;95584.34;;;26.67;40.46
22389;BME280;11362;48.102;11.620;2023-09-07T01:21:21;95590.28;;;26.69;40.41
22389;BME280;11362;48.102;11.620;2023-09-07T01:23:47;95578.34;;;26.69;40.43
22389;BME280;11362;48.102;11.620;2023-09-07T01:26:13;95589.06;;;26.70;40.51
22389;BME280;11362;48.102;11.620;2023-09-07T01:28:39;95578.78;;;26.67;40.27
22389;BME280;11362;48.102;11.620;2023-09-07T01:31:04;95581.19;;;26.65;40.67
22389;BME280;11362;48.102;11.620;2023-09-07T01:33:30;95581.66;;;26.64;40.63
22389;BME280;11362;48.102;11.620;2023-09-07T01:35:55;95577.22;;;26.66;40.59
22389;BME280;11362;48.102;11.620;2023-09-07T01:40:53;95580.50;;;26.61;40.40
22389;BME280;11362;48.102;11.620;2023-09-07T01:43:19;95586.06;;;26.61;40.39
22389;BME280;11362;48.102;11.620;2023-09-07T01:45:45;95583.63;;;26.63;40.74
22389;BME280;11362;48.102;11.620;2023-09-07T01:48:12;95581.19;;;26.65;40.74
22389;BME280;11362;48.102;11.620;2023-09-07T01:50:37;95581.19;;;26.65;40.58
22389;BME280;11362;48.102;11.620;2023-09-07T01:53:03;95574.06;;;26.64;40.64
22389;BME280;11362;48.102;11.620;2023-09-07T01:55:28;95576.84;;;26.64;40.43
22389;BME280;11362;48.102;11.620;2023-09-07T01:57:53;95578.06;;;26.63;40.67
22389;BME280;11362;48.102;11.620;2023-09-07T02:00:19;95574.94;;;26.61;40.54
22389;BME280;11362;48.102;11.620;2023-09-07T02:02:44;95572.13;;;26.61;40.60
22389;BME280;11362;48.102;11.620;2023-09-07T02:08:07;95571.72;;;26.63;40.44
22389;BME280;11362;48.102;11.620;2023-09-07T02:10:33;95574.94;;;26.61;40.65
22389;BME280;11362;48.102;11.620;2023-09-07T02:12:58;95579.34;;;26.59;40.39
22389;BME280;11362;48.102;11.620;2023-09-07T02:15:24;95581.38;;;26.58;40.74
22389;BME280;11362;48.102;11.620;2023-09-07T02:17:49;95586.94;;;26.58;40.53
22389;BME280;11362;48.102;11.620;2023-09-07T02:20:14;95578.94;;;26.60;40.56
22389;BME280;11362;48.102;11.620;2023-09-07T02:22:40;95572.56;;;26.60;40.50
22389;BME280;11362;48.102;11.620;2023-09-07T02:25:06;95572.28;;;26.54;40.77
22389;BME280;11362;48.102;11.620;2023-09-07T02:27:35;95574.28;;;26.54;40.45
22389;BME280;11362;48.102;11.620;2023-09-07T02:30:02;95580.28;;;26.52;40.79
22389;BME280;11362;48.102;11.620;2023-09-07T02:35:48;95581.06;;;26.53;40.32
22389;BME280;11362;48.102;11.620;2023-09-07T02:38:14;95586.22;;;26.54;40.82
22389;BME280;11362;48.102;11.620;2023-09-07T02:40:40;95581.44;;;26.55;40.40
22389;BME280;11362;48.102;11.620;2023-09-07T02:43:06;95577.84;;;26.54;40.38
22389;BME280;11362;48.102;11.620;2023-09-07T02:45:31;95591.44;;;26.52;40.48
22389;BME280;11362;48.102;11.620;2023-09-07T02:47:56;95577.84;;;26.54;40.42
22389;BME280;11362;48.102;11.620;2023-09-07T02:50:22;95579.06;;;26.53;40.38
22389;BME280;11362;48.102;11.620;2023-09-07T02:52:47;95581.38;;;26.58;40.69
22389;BME280;11362;48.102;11.620;2023-09-07T02:55:12;95584.16;;;26.58;40.60
22389;BME280;11362;48.102;11.620;2023-09-07T02:57:37;95578.66;;;26.55;40.68
22389;BME280;11362;48.102;11.620;2023-09-07T03:02:45;95579.78;;;26.57;40.59
22389;BME280;11362;48.102;11.620;2023-09-07T03:05:10;95577.38;;;26.59;40.37
22389;BME280;11362;48.102;11.620;2023-09-07T03:07:36;95570.84;;;26.66;40.29
22389;BME280;11362;48.102;11.620;2023-09-07T03:10:01;95572.28;;;26.54;40.68
22389;BME280;11362;48.102;11.620;2023-09-07T03:12:27;95580.22;;;26.56;40.61
22389;BME280;11362;48.102;11.620;2023-09-07T03:14:53;95573.44;;;26.57;40.37
22389;BME280;11362;48.102;11.620;2023-09-07T03:17:18;95577.50;;;26.52;40.75
22389;BME280;11362;48.102;11.620;2023-09-07T03:19:44;95581.38;;;26.58;40.25
22389;BME280;11362;48.102;11.620;2023-09-07T03:22:09;95583.28;;;26.61;40.34
22389;BME280;11362;48.102;11.620;2023-09-07T03:24:35;95582.13;;;26.59;40.17
22389;BME280;11362;48.102;11.620;2023-09-07T03:29:58;95585.88;;;26.52;40.48
22389;BME280;11362;48.102;11.620;2023-09-07T03:32:23;95580.28;;;26.52;40.63
22389;BME280;11362;48.102;11.620;2023-09-07T03:34:48;95583.09;;;26.52;40.36
22389;BME280;11362;48.102;11.620;2023-09-07T03:37:13;95586.22;;;26.54;40.36
22389;BME280;11362;48.102;11.620;2023-09-07T03:39:39;95582.25;;;26.52;40.66
22389;BME280;11362;48.102;11.620;2023-09-07T03:42:04;95578.13;;;26.60;40.19
22389;BME280;11362;48.102;11.620;2023-09-07T03:44:29;95583.78;;;26.56;40.25
22389;BME280;11362;48.102;11.620;2023-09-07T03:46:55;95584.66;;;26.53;40.43
22389;BME280;11362;48.102;11.620;2023-09-07T03:49:20;95589.00;;;26.54;40.50
22389;BME280;11362;48.102;11.620;2023-09-07T03:51:45;95585.41;;;26.54;40.32
22389;BME280;11362;48.102;11.620;2023-09-07T03:57:09;95586.22;;;26.54;40.46
22389;BME280;11362;48.102;11.620;2023-09-07T03:59:34;95584.22;;;26.55;40.27
22389;BME280;11362;48.102;11.620;2023-09-07T04:01:59;95586.22;;;26.54;40.23
22389;BME280;11362;48.102;11.620;2023-09-07T04:04:24;95587.78;;;26.55;40.42
22389;BME280;11362;48.102;11.620;2023-09-07T04:06:50;95583.44;;;26.54;40.28
22389;BME280;11362;48.102;11.620;2023-09-07T04:09:15;95591.03;;;26.50;40.25
22389;BME280;11362;48.102;11.620;2023-09-07T04:11:41;95587.81;;;26.52;40.35
22389;BME280;11362;48.102;11.620;2023-09-07T04:14:06;95597.00;;;26.52;40.19
22389;BME280;11362;48.102;11.620;2023-09-07T04:16:31;95590.25;;;26.50;40.47
22389;BME280;11362;48.102;11.620;2023-09-07T04:18:57;95589.41;;;26.53;40.50
22389;BME280;11362;48.102;11.620;2023-09-07T04:24:20;95595.41;;;26.51;40.39
22389;BME280;11362;48.102;11.620;2023-09-07T04:26:47;95596.59;;;26.50;40.23
22389;BME280;11362;48.102;11.620;2023-09-07T04:29:12;95591.09;;;26.47;40.47
22389;BME280;11362;48.102;11.620;2023-09-07T04:31:38;95591.03;;;26.50;40.40
22389;BME280;11362;48.102;11.620;2023-09-07T04:34:03;95593.78;;;26.54;40.45
22389;BME280;11362;48.102;11.620;2023-09-07T04:36:29;95599.78;;;26.52;40.36
22389;BME280;11362;48.102;11.620;2023-09-07T04:38:54;95595.78;;;26.53;40.17
22389;BME280;11362;48.102;11.620;2023-09-07T04:41:19;95601.75;;;26.52;40.27
22389;BME280;11362;48.102;11.620;2023-09-07T04:43:45;95600.97;;;26.51;40.12
22389;BME280;11362;48.102;11.620;2023-09-07T04:46:11;95604.53;;;26.52;40.32
22389;BME280;11362;48.102;11.620;2023-09-07T04:51:16;95605.75;;;26.51;40.31
22389;BME280;11362;48.102;11.620;2023-09-07T04:53:42;95605.38;;;26.52;40.15
22389;BME280;11362;48.102;11.620;2023-09-07T04:56:08;95614.13;;;26.51;40.02
22389;BME280;11362;48.102;11.620;2023-09-07T04:58:34;95611.75;;;26.49;40.03
22389;BME280;11362;48.102;11.620;2023-09-07T05:01:03;95609.41;;;26.48;40.31
22389;BME280;11362;48.102;11.620;2023-09-07T05:03:29;95608.16;;;26.52;40.39
22389;BME280;11362;48.102;11.620;2023-09-07T05:05:54;95612.63;;;26.46;40.47
22389;BME280;11362;48.102;11.620;2023-09-07T05:08:19;95620.19;;;26.46;40.43
22389;BME280;11362;48.102;11.620;2023-09-07T05:10:45;95621.75;;;26.47;40.04
22389;BME280;11362;48.102;11.620;2023-09-07T05:13:10;95615.41;;;26.46;40.16
22389;BME280;11362;48.102;11.620;2023-09-07T05:18:13;95626.47;;;26.50;39.83
22389;BME280;11362;48.102;11.620;2023-09-07T05:20:38;95620.47;;;26.51;40.07
22389;BME280;11362;48.102;11.620;2023-09-07T05:23:03;95620.91;;;26.50;40.79
22389;BME280;11362;48.102;11.620;2023-09-07T05:25:29;95623.75;;;26.46;40.13
22389;BME280;11362;48.102;11.620;2023-09-07T05:27:54;95626.13;;;26.48;40.06
22389;BME280;11362;48.102;11.620;2023-09-07T05:30:19;95632.47;;;26.48;40.08
22389;BME280;11362;48.102;11.620;2023-09-07T05:32:45;95628.53;;;26.46;39.61
22389;BME280;11362;48.102;11.620;2023-09-07T05:35:10;95622.13;;;26.49;39.64
22389;BME280;11362;48.102;11.620;2023-09-07T05:37:35;95635.66;;;26.47;39.73
22389;BME280;11362;48.102;11.620;2023-09-07T05:40:01;95640.47;;;26.46;39.72
22389;BME280;11362;48.102;11.620;2023-09-07T05:44:58;95645.38;;;26.39;38.73
22389;BME280;11362;48.102;11.620;2023-09-07T05:47:23;95642.97;;;26.41;39.35
22389;BME280;11362;48.102;11.620;2023-09-07T05:49:49;95640.53;;;26.43;39.07
22389;BME280;11362;48.102;11.620;2023-09-07T05:52:14;95646.53;;;26.41;38.78
22389;BME280;11362;48.102;11.620;2023-09-07T05:54:39;95644.97;;;26.40;38.97
22389;BME280;11362;48.102;11.620;2023-09-07T05:57:04;95655.63;;;26.45;39.26
22389;BME280;11362;48.102;11.620;2023-09-07T05:59:30;95650.41;;;26.47;39.36
22389;BME280;11362;48.102;11.620;2023-09-07T06:01:55;95654.41;;;26.46;38.92
22389;BME280;11362;48.102;11.620;2023-09-07T06:04:20;95644.91;;;26.44;39.15
22389;BME280;11362;48.102;11.620;2023-09-07T06:06:47;95648.47;;;26.44;39.12
22389;BME280;11362;48.102;11.620;2023-09-07T06:11:50;95651.56;;;26.50;38.89
22389;BME280;11362;48.102;11.620;2023-09-07T06:14:15;95650.72;;;26.53;38.79
22389;BME280;11362;48.102;11.620;2023-09-07T06:16:40;95658.69;;;26.51;39.00
22389;BME280;11362;48.102;11.620;2023-09-07T06:19:06;95649.94;;;26.52;39.01
22389;BME280;11362;48.102;11.620;2023-09-07T06:21:31;95658.69;;;26.51;38.76
22389;BME280;11362;48.102;11.620;2023-09-07T06:23:56;95649.94;;;26.52;38.58
22389;BME280;11362;48.102;11.620;2023-09-07T06:26:22;95644.81;;;26.47;39.05
22389;BME280;11362;48.102;11.620;2023-09-07T06:28:47;95643.63;;;26.48;38.95
22389;BME280;11362;48.102;11.620;2023-09-07T06:31:12;95651.97;;;26.48;38.85
22389;BME280;11362;48.102;11.620;2023-09-07T06:33:37;95644.09;;;26.43;39.10
22389;BME280;11362;48.102;11.620;2023-09-07T06:39:01;95647.97;;;26.49;38.77
22389;BME280;11362;48.102;11.620;2023-09-07T06:41:27;95657.13;;;26.50;39.24
22389;BME280;11362;48.102;11.620;2023-09-07T06:43:52;95655.91;;;26.51;38.93
22389;BME280;11362;48.102;11.620;2023-09-07T06:46:18;95657.91;;;26.50;39.08
22389;BME280;11362;48.102;11.620;2023-09-07T06:48:43;95651.13;;;26.51;39.31
22389;BME280;11362;48.102;11.620;2023-09-07T06:51:08;95644.38;;;26.52;39.53
22389;BME280;11362;48.102;11.620;2023-09-07T06:53:34;95647.56;;;26.51;39.18
22389;BME280;11362;48.102;11.620;2023-09-07T06:56:03;95643.53;;;26.52;39.22
22389;BME280;11362;48.102;11.620;2023-09-07T06:58:28;95652.72;;;26.52;39.09
22389;BME280;11362;48.102;11.620;2023-09-07T07:04:12;95650.34;;;26.51;39.41
22389;BME280;11362;48.102;11.620;2023-09-07T07:06:37;95659.50;;;26.51;39.42
22389;BME280;11362;48.102;11.620;2023-09-07T07:09:03;95653.09;;;26.54;39.37
22389;BME280;11362;48.102;11.620;2023-09-07T07:11:28;95658.66;;;26.54;39.39
22389;BME280;11362;48.102;11.620;2023-09-07T07:13:53;95655.00;;;26.57;39.88
22389;BME280;11362;48.102;11.620;2023-09-07T07:16:19;95653.81;;;26.58;39.83
22389;BME280;11362;48.102;11.620;2023-09-07T07:18:44;95664.22;;;26.54;40.25
22389;BME280;11362;48.102;11.620;2023-09-07T07:21:09;95657.09;;;26.53;40.19
22389;BME280;11362;48.102;11.620;2023-09-07T07:23:35;95662.28;;;26.51;40.18
22389;BME280;11362;48.102;11.620;2023-09-07T07:26:00;95661.09;;;26.52;39.74
22389;BME280;11362;48.102;11.620;2023-09-07T07:31:23;95669.03;;;26.50;40.15
22389;BME280;11362;48.102;11.620;2023-09-07T07:33:48;95667.13;;;26.47;40.26
22389;BME280;11362;48.102;11.620;2023-09-07T07:36:14;95672.34;;;26.45;40.47
22389;BME280;11362;48.102;11.620;2023-09-07T07:38:39;95673.09;;;26.46;40.58
22389;BME280;11362;48.102;11.620;2023-09-07T07:41:04;95669.16;;;26.43;40.30
22389;BME280;11362;48.102;11.620;2023-09-07T07:43:29;95671.81;;;26.50;40.10
22389;BME280;11362;48.102;11.620;2023-09-07T07:45:55;95669.03;;;26.50;40.32
22389;BME280;11362;48.102;11.620;2023-09-07T07:48:20;95667.84;;;26.51;40.41
22389;BME280;11362;48.102;11.620;2023-09-07T07:50:45;95667.84;;;26.51;40.13
22389;BME280;11362;48.102;11.620;2023-09-07T07:53:11;95676.19;;;26.55;40.21
22389;BME280;11362;48.102;11.620;2023-09-07T07:58:50;95672.22;;;26.52;40.19
22389;BME280;11362;48.102;11.620;2023-09-07T08:01:19;95669.00;;;26.54;40.36
22389;BME280;11362;48.102;11.620;2023-09-07T08:03:45;95665.44;;;26.53;40.76
22389;BME280;11362;48.102;11.620;2023-09-07T08:06:11;95665.84;;;26.52;40.88
22389;BME280;11362;48.102;11.620;2023-09-07T08:08:37;95666.25;;;26.50;41.09
22389;BME280;11362;48.102;11.620;2023-09-07T08:11:02;95665.06;;;26.51;41.28
22389;BME280;11362;48.102;11.620;2023-09-07T08:13:27;95659.50;;;26.51;41.10
22389;BME280;11362;48.102;11.620;2023-09-07T08:15:53;95665.44;;;26.53;41.38
22389;BME280;11362;48.102;11.620;2023-09-07T08:18:18;95662.19;;;26.58;41.06
22389;BME280;11362;48.102;11.620;2023-09-07T08:20:44;95663.38;;;26.57;40.96
22389;BME280;11362;48.102;11.620;2023-09-07T08:24:46;95659.81;;;26.57;41.21
22389;BME280;11362;48.102;11.620;2023-09-07T08:27:11;95664.97;;;26.58;41.28
22389;BME280;11362;48.102;11.620;2023-09-07T08:29:36;95669.66;;;26.61;41.48
22389;BME280;11362;48.102;11.620;2023-09-07T08:32:01;95661.44;;;26.54;42.50
22389;BME280;11362;48.102;11.620;2023-09-07T08:34:27;95665.44;;;26.53;42.57
22389;BME280;11362;48.102;11.620;2023-09-07T08:36:52;95667.44;;;26.53;42.11
22389;BME280;11362;48.102;11.620;2023-09-07T08:39:20;95666.66;;;26.52;42.32
22389;BME280;11362;48.102;11.620;2023-09-07T08:41:45;95661.44;;;26.54;42.14
22389;BME280;11362;48.102;11.620;2023-09-07T08:44:11;95663.38;;;26.57;42.21
22389;BME280;11362;48.102;11.620;2023-09-07T08:46:37;95665.31;;;26.60;41.99
22389;BME280;11362;48.102;11.620;2023-09-07T08:51:12;95645.19;;;26.49;43.06
22389;BME280;11362;48.102;11.620;2023-09-07T08:53:40;95655.88;;;26.54;42.63
22389;BME280;11362;48.102;11.620;2023-09-07T08:56:06;95650.72;;;26.53;43.08
22389;BME280;11362;48.102;11.620;2023-09-07T08:58:32;95656.72;;;26.51;43.29
22389;BME280;11362;48.102;11.620;2023-09-07T09:00:57;95658.25;;;26.56;42.89
22389;BME280;11362;48.102;11.620;2023-09-07T09:03:23;95663.03;;;26.52;42.81
22389;BME280;11362;48.102;11.620;2023-09-07T09:05:50;95662.19;;;26.58;42.58
22389;BME280;11362;48.102;11.620;2023-09-07T09:08:15;95645.81;;;26.60;42.74
22389;BME280;11362;48.102;11.620;2023-09-07T09:10:40;95661.31;;;26.61;42.73
22389;BME280;11362;48.102;11.620;2023-09-07T09:13:06;95658.53;;;26.61;42.51
22389;BME280;11362;48.102;11.620;2023-09-07T09:18:48;95649.28;;;26.64;42.49
22389;BME280;11362;48.102;11.620;2023-09-07T09:21:14;95648.06;;;26.65;42.53
22389;BME280;11362;48.102;11.620;2023-09-07T09:23:40;95643.66;;;26.68;42.67
22389;BME280;11362;48.102;11.620;2023-09-07T09:26:05;95645.59;;;26.71;42.26
22389;BME280;11362;48.102;11.620;2023-09-07T09:28:32;95638.06;;;26.68;42.27
22389;BME280;11362;48.102;11.620;2023-09-07T09:31:01;95637.72;;;26.66;42.27
22389;BME280;11362;48.102;11.620;2023-09-07T09:33:30;95635.28;;;26.68;42.30
22389;BME280;11362;48.102;11.620;2023-09-07T09:35:56;95631.28;;;26.69;42.10
22389;BME280;11362;48.102;11.620;2023-09-07T09:38:22;95638.47;;;26.70;42.39
22389;BME280;11362;48.102;11.620;2023-09-07T09:40:47;95628.94;;;26.67;42.37
22389;BME280;11362;48.102;11.620;2023-09-07T09:45:50;95631.34;;;26.65;42.48
22389;BME280;11362;48.102;11.620;2023-09-07T09:48:21;95634.53;;;26.67;42.51
22389;BME280;11362;48.102;11.620;2023-09-07T09:50:46;95630.50;;;26.68;42.07
22389;BME280;11362;48.102;11.620;2023-09-07T09:53:12;95624.88;;;26.72;42.09
22389;BME280;11362;48.102;11.620;2023-09-07T09:55:38;95630.44;;;26.72;42.20
22389;BME280;11362;48.102;11.620;2023-09-07T09:58:03;95630.44;;;26.72;42.52
22389;BME280;11362;48.102;11.620;2023-09-07T10:00:29;95629.66;;;26.71;42.54
22389;BME280;11362;48.102;11.620;2023-09-07T10:03:07;95630.09;;;26.70;42.42
22389;BME280;11362;48.102;11.620;2023-09-07T10:05:33;95640.03;;;26.71;42.54
22389;BME280;11362;48.102;11.620;2023-09-07T10:08:04;95628.88;;;26.71;42.57
22389;BME280;11362;48.102;11.620;2023-09-07T10:13:05;95629.66;;;26.71;42.75
22389;BME280;11362;48.102;11.620;2023-09-07T10:15:31;95629.28;;;26.69;42.75
22389;BME280;11362;48.102;11.620;2023-09-07T10:20:35;95628.06;;;26.70;42.40
22389;BME280;11362;48.102;11.620;2023-09-07T10:23:11;95628.88;;;26.71;42.76
22389;BME280;11362;48.102;11.620;2023-09-07T10:25:36;95622.50;;;26.70;42.88
22389;BME280;11362;48.102;11.620;2023-09-07T10:28:01;95626.94;;;26.68;42.82
22389;BME280;11362;48.102;11.620;2023-09-07T10:30:27;95627.72;;;26.68;42.63
22389;BME280;11362;48.102;11.620;2023-09-07T10:32:52;95625.00;;;26.65;42.90
22389;BME280;11362;48.102;11.620;2023-09-07T10:35:20;95627.38;;;26.66;42.83
22389;BME280;11362;48.102;11.620;2023-09-07T10:40:12;95629.72;;;26.68;42.77
22389;BME280;11362;48.102;11.620;2023-09-07T10:42:37;95620.50;;;26.71;42.88
22389;BME280;11362;48.102;11.620;2023-09-07T10:45:14;95619.38;;;26.68;42.55
22389;BME280;11362;48.102;11.620;2023-09-07T10:47:43;95610.66;;;26.66;43.01
22389;BME280;11362;48.102;11.620;2023-09-07T10:50:12;95605.09;;;26.66;42.91
22389;BME280;11362;48.102;11.620;2023-09-07T10:52:38;95611.44;;;26.67;42.62
22389;BME280;11362;48.102;11.620;2023-09-07T10:55:04;95617.41;;;26.65;42.59
22389;BME280;11362;48.102;11.620;2023-09-07T10:57:29;95621.72;;;26.70;42.88
22389;BME280;11362;48.102;11.620;2023-09-07T10:59:55;95620.22;;;26.65;42.95
22389;BME280;11362;48.102;11.620;2023-09-07T11:02:20;95619.84;;;26.63;42.81
22389;BME280;11362;48.102;11.620;2023-09-07T11:07:53;95608.72;;;26.63;42.97
22389;BME280;11362;48.102;11.620;2023-09-07T11:10:19;95612.72;;;26.62;42.68
22389;BME280;11362;48.102;11.620;2023-09-07T11:12:45;95610.72;;;26.63;43.12
22389;BME280;11362;48.102;11.620;2023-09-07T11:15:11;95605.00;;;26.70;42.90
22389;BME280;11362;48.102;11.620;2023-09-07T11:17:38;95614.63;;;26.65;43.04
22389;BME280;11362;48.102;11.620;2023-09-07T11:20:04;95607.50;;;26.64;42.82
22389;BME280;11362;48.102;11.620;2023-09-07T11:22:29;95601.91;;;26.64;42.88
22389;BME280;11362;48.102;11.620;2023-09-07T11:24:55;95604.72;;;26.64;43.08
22389;BME280;11362;48.102;11.620;2023-09-07T11:27:21;95605.16;;;26.63;43.29
22389;BME280;11362;48.102;11.620;2023-09-07T11:29:53;95603.13;;;26.63;43.05
22389;BME280;11362;48.102;11.620;2023-09-07T11:34:52;95605.09;;;26.66;43.08
22389;BME280;11362;48.102;11.620;2023-09-07T11:37:23;95597.16;;;26.65;43.31
22389;BME280;11362;48.102;11.620;2023-09-07T11:39:48;95606.66;;;26.67;43.07
22389;BME280;11362;48.102;11.620;2023-09-07T11:42:13;95593.94;;;26.66;43.10
22389;BME280;11362;48.102;11.620;2023-09-07T11:44:39;95599.13;;;26.64;43.45
22389;BME280;11362;48.102;11.620;2023-09-07T11:47:04;95593.94;;;26.66;43.25
22389;BME280;11362;48.102;11.620;2023-09-07T11:49:30;95595.94;;;26.66;43.19
22389;BME280;11362;48.102;11.620;2023-09-07T11:51:55;95589.13;;;26.67;43.49
22389;BME280;11362;48.102;11.620;2023-09-07T11:54:20;95589.84;;;26.71;43.55
22389;BME280;11362;48.102;11.620;2023-09-07T11:59:23;95590.63;;;26.71;43.59
22389;BME280;11362;48.102;11.620;2023-09-07T12:01:49;95588.22;;;26.73;43.61
22389;BME280;11362;48.102;11.620;2023-09-07T12:04:14;95591.78;;;26.74;43.70
22389;BME280;11362;48.102;11.620;2023-09-07T12:06:39;95588.22;;;26.73;43.66
22389;BME280;11362;48.102;11.620;2023-09-07T12:09:06;95589.78;;;26.74;43.74
22389;BME280;11362;48.102;11.620;2023-09-07T12:11:32;95577.50;;;26.72;43.83
22389;BME280;11362;48.102;11.620;2023-09-07T12:13:58;95586.63;;;26.72;43.65
22389;BME280;11362;48.102;11.620;2023-09-07T12:16:25;95585.06;;;26.71;43.68
22389;BME280;11362;48.102;11.620;2023-09-07T12:18:51;95582.25;;;26.71;43.83
22389;BME280;11362;48.102;11.620;2023-09-07T12:21:16;95588.22;;;26.73;43.37
22389;BME280;11362;48.102;11.620;2023-09-07T12:26:50;95581.03;;;26.72;43.72
22389;BME280;11362;48.102;11.620;2023-09-07T12:29:16;95584.63;;;26.73;43.44
22389;BME280;11362;48.102;11.620;2023-09-07T12:31:41;95579.84;;;26.73;43.57
22389;BME280;11362;48.102;11.620;2023-09-07T12:34:06;95575.47;;;26.72;43.51
22389;BME280;11362;48.102;11.620;2023-09-07T12:36:31;95573.06;;;26.74;43.93
22389;BME280;11362;48.102;11.620;2023-09-07T12:38:57;95569.06;;;26.75;44.08
22389;BME280;11362;48.102;11.620;2023-09-07T12:41:22;95569.75;;;26.79;43.64
22389;BME280;11362;48.102;11.620;2023-09-07T12:43:47;95561.03;;;26.77;43.71
22389;BME280;11362;48.102;11.620;2023-09-07T12:46:13;95569.75;;;26.79;43.59
22389;BME280;11362;48.102;11.620;2023-09-07T12:48:38;95564.16;;;26.79;43.65
22389;BME280;11362;48.102;11.620;2023-09-07T12:51:03;95566.63;;;26.77;43.52
22389;BME280;11362;48.102;11.620;2023-09-07T12:53:28;95562.59;;;26.78;43.42
22389;BME280;11362;48.102;11.620;2023-09-07T12:58:26;95561.84;;;26.78;43.42
22389;BME280;11362;48.102;11.620;2023-09-07T13:00:51;95560.28;;;26.77;43.45
22389;BME280;11362;48.102;11.620;2023-09-07T13:03:17;95562.25;;;26.76;43.66
22389;BME280;11362;48.102;11.620;2023-09-07T13:05:43;95567.34;;;26.81;43.25
22389;BME280;11362;48.102;11.620;2023-09-07T13:08:08;95557.03;;;26.78;43.33
22389;BME280;11362;48.102;11.620;2023-09-07T13:10:33;95567.41;;;26.78;43.53
22389;BME280;11362;48.102;11.620;2023-09-07T13:12:59;95566.28;;;26.75;43.29
22389;BME280;11362;48.102;11.620;2023-09-07T13:15:24;95560.19;;;26.80;43.15
22389;BME280;11362;48.102;11.620;2023-09-07T13:17:49;95557.03;;;26.78;43.22
22389;BME280;11362;48.102;11.620;2023-09-07T13:20:15;95561.03;;;26.77;43.36
22389;BME280;11362;48.102;11.620;2023-09-07T13:24:52;95555.47;;;26.77;43.07
22389;BME280;11362;48.102;11.620;2023-09-07T13:27:18;95559.47;;;26.76;42.97
22389;BME280;11362;48.102;11.620;2023-09-07T13:29:43;95561.03;;;26.77;42.90
22389;BME280;11362;48.102;11.620;2023-09-07T13:32:08;95555.47;;;26.77;42.73
22389;BME280;11362;48.102;11.620;2023-09-07T13:34:33;95553.03;;;26.79;43.04
22389;BME280;11362;48.102;11.620;2023-09-07T13:36:59;95554.25;;;26.78;42.74
22389;BME280;11362;48.102;11.620;2023-09-07T13:39:24;95549.81;;;26.81;42.74
22389;BME280;11362;48.102;11.620;2023-09-07T13:41:49;95545.81;;;26.82;42.74
22389;BME280;11362;48.102;11.620;2023-09-07T13:44:15;95538.25;;;26.82;42.45
22389;BME280;11362;48.102;11.620;2023-09-07T13:46:41;95544.25;;;26.81;42.60
22389;BME280;11362;48.102;11.620;2023-09-07T13:52:19;95540.22;;;26.82;42.41
22389;BME280;11362;48.102;11.620;2023-09-07T13:54:44;95545.72;;;26.85;42.25
22389;BME280;11362;48.102;11.620;2023-09-07T13:57:10;95533.72;;;26.88;41.83
22389;BME280;11362;48.102;11.620;2023-09-07T13:59:35;95542.44;;;26.90;41.78
22389;BME280;11362;48.102;11.620;2023-09-07T14:02:00;95540.53;;;26.87;41.90
22389;BME280;11362;48.102;11.620;2023-09-07T14:04:26;95539.31;;;26.88;41.93
22389;BME280;11362;48.102;11.620;2023-09-07T14:06:52;95536.16;;;26.86;41.75
22389;BME280;11362;48.102;11.620;2023-09-07T14:09:17;95541.28;;;26.88;41.39